The Glen, New York
Current Conditions -  °F | °C
As of 10:53 AM on Sunday 21 Dec 2014 (Local Time) from KGFL Reporting Station
Haze Haze  
Wind Chill: 25°   Ceiling: 2700
Heat Index: 25°   Visibility: 4mi
Dew Point: 22°   Wind: 0mph
Humidity: 88%   Direction: NA
Pressure: 30.36"   Gusts: NA
Location:  43.4835°N, 73.8027°W
Report Text: KGFL 211553Z AUTO 00000KT 4SM BR OVC027 M04/M06 A3036 RMK AO2 SNB03E28 SLP291 P0000 T10391056
Loading
Personal Weather Stations






























Interactive Weather Map New forecast layout! Learn more

10-Day Weather Forecast

Advertisements
Track Severe Weather on mobile